createdAt,value
2022-10-21T00:01:50.867Z,8.48
2022-10-21T00:04:17.475Z,8.34
2022-10-21T00:06:44.117Z,8.38
2022-10-21T00:09:10.756Z,8.47
2022-10-21T00:11:37.472Z,8.32
2022-10-21T00:14:04.197Z,8.15
2022-10-21T00:16:30.838Z,8.03
2022-10-21T00:18:57.418Z,7.80
2022-10-21T00:21:24.043Z,8.15
2022-10-21T00:23:50.780Z,8.24
2022-10-21T00:26:18.417Z,7.92
2022-10-21T00:28:45.050Z,7.53
2022-10-21T00:31:13.764Z,8.05
2022-10-21T00:33:40.817Z,8.32
2022-10-21T00:36:08.357Z,8.12
2022-10-21T00:38:35.883Z,8.22
2022-10-21T00:41:02.896Z,8.15
2022-10-21T00:43:30.083Z,7.69
2022-10-21T00:46:03.691Z,8.10
2022-10-21T00:48:42.122Z,8.08
2022-10-21T00:51:16.616Z,8.22
2022-10-21T00:53:47.822Z,7.78
2022-10-21T00:56:18.236Z,8.03
2022-10-21T00:58:48.010Z,7.44
2022-10-21T01:01:19.120Z,8.13
2022-10-21T01:03:49.124Z,8.01
2022-10-21T01:06:18.712Z,8.14
2022-10-21T01:08:45.363Z,7.89
2022-10-21T01:11:18.010Z,7.90
2022-10-21T01:13:53.812Z,7.89
2022-10-21T01:16:36.701Z,7.76
2022-10-21T01:19:28.273Z,7.80
2022-10-21T01:22:32.599Z,7.09
2022-10-21T01:25:27.767Z,7.68
2022-10-21T01:28:00.317Z,7.77
2022-10-21T01:30:44.245Z,7.72
2022-10-21T01:33:41.578Z,7.88
2022-10-21T01:36:20.871Z,7.80
2022-10-21T01:39:19.916Z,7.62
2022-10-21T01:41:54.818Z,7.37
2022-10-21T01:44:27.786Z,7.39
2022-10-21T01:46:59.169Z,7.30
2022-10-21T01:49:25.675Z,7.32
2022-10-21T01:51:54.542Z,7.33
2022-10-21T01:54:26.368Z,7.29
2022-10-21T01:56:54.187Z,7.09
2022-10-21T01:59:24.640Z,6.71
2022-10-21T02:01:52.751Z,7.44
2022-10-21T02:04:20.392Z,7.30
2022-10-21T02:06:47.076Z,7.45
2022-10-21T02:09:13.814Z,7.31
2022-10-21T02:11:43.526Z,7.21
2022-10-21T02:14:18.411Z,7.45
2022-10-21T02:16:46.535Z,7.27
2022-10-21T02:19:18.739Z,7.63
2022-10-21T02:21:47.882Z,7.60
2022-10-21T02:24:25.334Z,7.52
2022-10-21T02:26:52.100Z,6.95
2022-10-21T02:29:26.808Z,6.94
2022-10-21T02:32:34.542Z,7.18
2022-10-21T02:35:36.602Z,7.27
2022-10-21T02:38:41.057Z,7.29
2022-10-21T02:41:10.714Z,7.29
2022-10-21T02:43:48.838Z,7.19
2022-10-21T02:46:15.922Z,7.35
2022-10-21T02:48:45.470Z,7.18
2022-10-21T02:51:12.655Z,7.29
2022-10-21T02:53:39.239Z,7.28
2022-10-21T02:56:06.635Z,7.35
2022-10-21T02:58:33.263Z,7.15
2022-10-21T03:01:00.278Z,7.27
2022-10-21T03:03:26.984Z,6.90
2022-10-21T03:05:53.605Z,7.20
2022-10-21T03:08:20.215Z,7.16
2022-10-21T03:10:52.955Z,6.98
2022-10-21T03:13:20.965Z,7.07
2022-10-21T03:15:48.877Z,6.99
2022-10-21T03:18:15.621Z,7.15
2022-10-21T03:20:42.326Z,7.06
2022-10-21T03:23:08.949Z,7.03
2022-10-21T03:25:35.934Z,6.75
2022-10-21T03:28:02.592Z,6.89
2022-10-21T03:30:29.269Z,6.85
2022-10-21T03:32:55.871Z,6.81
2022-10-21T03:35:22.681Z,6.42
2022-10-21T03:37:49.255Z,6.91
2022-10-21T03:40:15.904Z,7.10
2022-10-21T03:42:42.495Z,6.87
2022-10-21T03:45:09.619Z,6.79
2022-10-21T03:47:36.279Z,6.85
2022-10-21T03:50:05.413Z,6.95
2022-10-21T03:52:34.254Z,6.74
2022-10-21T03:55:00.860Z,6.41
2022-10-21T03:57:27.433Z,6.34
2022-10-21T03:59:54.019Z,6.26
2022-10-21T04:02:20.643Z,6.63
2022-10-21T04:04:47.243Z,6.77
2022-10-21T04:07:13.878Z,6.68
2022-10-21T04:09:40.443Z,6.45
2022-10-21T04:12:07.058Z,6.18
2022-10-21T04:14:33.689Z,6.32
2022-10-21T04:17:06.890Z,6.66
2022-10-21T04:19:34.032Z,6.87
2022-10-21T04:22:00.686Z,6.58
2022-10-21T04:24:27.295Z,6.19
2022-10-21T04:26:53.893Z,6.85
2022-10-21T04:29:20.597Z,6.58
2022-10-21T04:31:50.009Z,6.80
2022-10-21T04:34:16.738Z,6.83
2022-10-21T04:36:43.363Z,6.85
2022-10-21T04:39:10.034Z,6.50
2022-10-21T04:41:36.662Z,6.79
2022-10-21T04:44:03.739Z,6.91
2022-10-21T04:46:30.329Z,6.72
2022-10-21T04:48:56.927Z,6.59
2022-10-21T04:51:23.584Z,6.84
2022-10-21T04:53:50.248Z,6.79
2022-10-21T04:56:16.893Z,6.61
2022-10-21T04:58:43.493Z,6.50
2022-10-21T05:01:10.234Z,6.32
2022-10-21T05:03:36.900Z,6.37
2022-10-21T05:06:03.717Z,6.63
2022-10-21T05:08:30.409Z,6.60
2022-10-21T05:11:01.380Z,6.26
2022-10-21T05:13:31.548Z,6.62
2022-10-21T05:15:59.680Z,6.04
2022-10-21T05:18:26.514Z,6.65
2022-10-21T05:20:55.127Z,6.17
2022-10-21T05:23:22.426Z,6.67
2022-10-21T05:25:51.511Z,6.50
2022-10-21T05:28:18.985Z,6.62
2022-10-21T05:30:45.703Z,6.77
2022-10-21T05:33:12.509Z,6.62
2022-10-21T05:35:39.249Z,6.71
2022-10-21T05:38:06.277Z,6.96
2022-10-21T05:40:33.604Z,6.97
2022-10-21T05:43:00.258Z,6.55
2022-10-21T05:45:27.134Z,6.77
2022-10-21T05:47:53.697Z,6.75
2022-10-21T05:50:20.421Z,7.01
2022-10-21T05:52:46.980Z,6.63
2022-10-21T05:55:13.577Z,6.70
2022-10-21T05:57:40.451Z,6.75
2022-10-21T06:00:08.136Z,7.15
2022-10-21T06:02:35.667Z,7.04
2022-10-21T06:05:02.504Z,7.24
2022-10-21T06:07:29.181Z,7.08
2022-10-21T06:09:56.246Z,7.34
2022-10-21T06:12:22.925Z,7.24
2022-10-21T06:14:49.568Z,7.14
2022-10-21T06:17:16.291Z,7.36
2022-10-21T06:19:45.978Z,7.02
2022-10-21T06:22:15.753Z,7.00
2022-10-21T06:24:42.324Z,6.82
2022-10-21T06:27:09.303Z,7.26
2022-10-21T06:29:35.888Z,7.28
2022-10-21T06:32:02.651Z,6.71
2022-10-21T06:34:29.260Z,6.95
2022-10-21T06:36:55.908Z,7.01
2022-10-21T06:39:22.527Z,7.37
2022-10-21T06:41:49.094Z,7.52
2022-10-21T06:44:32.523Z,7.48
2022-10-21T06:46:59.116Z,7.34
2022-10-21T06:49:25.816Z,7.57
2022-10-21T06:51:52.581Z,6.80
2022-10-21T06:54:19.250Z,7.10
2022-10-21T06:56:45.806Z,7.75
2022-10-21T06:59:12.475Z,7.52
2022-10-21T07:01:59.202Z,7.80
2022-10-21T07:04:25.722Z,7.39
2022-10-21T07:06:52.336Z,7.80
2022-10-21T07:09:19.022Z,7.51
2022-10-21T07:11:45.712Z,7.31
2022-10-21T07:14:12.631Z,7.52
2022-10-21T07:16:39.427Z,7.53
2022-10-21T07:19:06.683Z,7.57
2022-10-21T07:21:33.378Z,7.96
2022-10-21T07:24:00.928Z,7.38
2022-10-21T07:26:31.388Z,8.12
2022-10-21T07:29:00.272Z,8.02
2022-10-21T07:31:28.656Z,8.29
2022-10-21T07:33:56.092Z,7.99
2022-10-21T07:36:26.538Z,8.16
2022-10-21T07:38:55.540Z,8.32
2022-10-21T07:41:34.178Z,8.13
2022-10-21T07:44:01.947Z,8.04
2022-10-21T07:46:28.536Z,8.15
2022-10-21T07:48:55.232Z,7.81
2022-10-21T07:51:28.569Z,8.56
2022-10-21T07:53:58.911Z,8.53
2022-10-21T07:56:30.803Z,8.58
2022-10-21T07:58:58.026Z,8.21
2022-10-21T08:01:25.125Z,8.82
2022-10-21T08:03:53.374Z,8.59
2022-10-21T08:06:20.071Z,8.61
2022-10-21T08:08:47.084Z,8.62
2022-10-21T08:11:43.202Z,8.59
2022-10-21T08:14:10.407Z,8.12
2022-10-21T08:16:37.696Z,8.63
2022-10-21T08:19:05.369Z,8.62
2022-10-21T08:21:32.096Z,8.38
2022-10-21T08:24:00.929Z,8.45
2022-10-21T08:26:27.570Z,8.18
2022-10-21T08:28:54.259Z,8.44
2022-10-21T08:31:22.329Z,8.20
2022-10-21T08:33:50.001Z,8.67
2022-10-21T08:36:20.157Z,8.87
2022-10-21T08:38:47.707Z,8.82
2022-10-21T08:41:29.447Z,9.16
2022-10-21T08:44:10.669Z,9.39
2022-10-21T08:46:53.634Z,9.13
2022-10-21T08:49:29.999Z,9.13
2022-10-21T08:52:03.499Z,9.17
2022-10-21T08:55:13.907Z,8.97
2022-10-21T08:57:40.766Z,9.26
2022-10-21T09:00:20.393Z,8.89
2022-10-21T09:03:03.051Z,9.48
2022-10-21T09:05:52.890Z,9.66
2022-10-21T09:08:43.619Z,10.02
2022-10-21T09:11:19.654Z,10.23
2022-10-21T09:14:21.588Z,10.28
2022-10-21T09:17:25.898Z,10.25
2022-10-21T09:20:02.944Z,10.22
2022-10-21T09:22:54.877Z,10.14
2022-10-21T09:25:38.859Z,10.13
2022-10-21T09:28:14.750Z,10.11
2022-10-21T09:30:42.783Z,10.20
2022-10-21T09:33:15.574Z,10.23
2022-10-21T09:35:54.682Z,9.99
2022-10-21T09:38:30.036Z,10.01
2022-10-21T09:41:03.658Z,10.02
2022-10-21T09:43:30.480Z,9.96
2022-10-21T09:45:58.015Z,9.94
2022-10-21T09:49:16.259Z,10.02
2022-10-21T09:51:37.709Z,9.72
2022-10-21T09:54:25.084Z,9.90
2022-10-21T09:57:04.262Z,9.85
2022-10-21T09:59:33.516Z,9.97
2022-10-21T10:02:15.710Z,10.03
2022-10-21T10:04:42.395Z,9.86
2022-10-21T10:07:21.250Z,10.28
2022-10-21T10:09:48.615Z,10.24
2022-10-21T10:12:21.527Z,10.12
2022-10-21T10:14:48.542Z,10.31
2022-10-21T10:17:24.112Z,10.41
2022-10-21T10:20:06.034Z,10.23
2022-10-21T10:22:37.725Z,10.22
2022-10-21T10:25:14.662Z,9.87
2022-10-21T10:27:53.851Z,10.17
2022-10-21T10:30:23.400Z,9.84
2022-10-21T10:32:52.481Z,9.46
2022-10-21T10:35:26.023Z,10.09
2022-10-21T10:37:54.109Z,10.00
2022-10-21T10:40:25.067Z,9.99
2022-10-21T10:43:01.075Z,10.45
2022-10-21T10:45:27.936Z,9.98
2022-10-21T10:47:58.648Z,10.23
2022-10-21T10:50:37.559Z,10.61
2022-10-21T10:53:24.063Z,10.62
2022-10-21T10:56:23.011Z,10.56
2022-10-21T10:59:17.427Z,10.52
2022-10-21T11:01:54.142Z,10.54
2022-10-21T11:04:32.750Z,10.59
2022-10-21T11:07:12.228Z,10.56
2022-10-21T11:09:39.322Z,10.73
2022-10-21T11:12:20.356Z,10.77
2022-10-21T11:14:51.684Z,10.62
2022-10-21T11:17:21.527Z,10.18
2022-10-21T11:20:06.226Z,10.35
2022-10-21T11:22:38.811Z,10.56
2022-10-21T11:25:24.171Z,10.51
2022-10-21T11:28:18.934Z,10.59
2022-10-21T11:31:13.392Z,10.55
2022-10-21T11:33:55.323Z,10.58
2022-10-21T11:36:37.490Z,10.55
2022-10-21T11:39:33.249Z,10.86
2022-10-21T11:42:02.902Z,10.83
2022-10-21T11:44:53.503Z,10.85
2022-10-21T11:47:52.646Z,10.97
2022-10-21T11:50:46.135Z,10.17
2022-10-21T11:53:26.170Z,10.84
2022-10-21T11:56:19.735Z,11.05
2022-10-21T11:58:46.252Z,11.03
2022-10-21T12:01:12.783Z,10.93
2022-10-21T12:04:01.405Z,11.12
2022-10-21T12:06:38.584Z,11.07
2022-10-21T12:09:14.711Z,10.97
2022-10-21T12:12:15.969Z,11.29
2022-10-21T12:14:56.335Z,11.17
2022-10-21T12:17:24.591Z,11.34
2022-10-21T12:20:21.318Z,11.46
2022-10-21T12:22:52.424Z,10.67
2022-10-21T12:25:32.957Z,11.35
2022-10-21T12:28:22.923Z,11.26
2022-10-21T12:31:01.398Z,11.22
2022-10-21T12:33:37.099Z,11.17
2022-10-21T12:36:23.537Z,11.03
2022-10-21T12:38:55.681Z,11.18
2022-10-21T12:41:35.921Z,11.21
2022-10-21T12:44:05.413Z,11.16
2022-10-21T12:46:47.389Z,10.89
2022-10-21T12:49:35.790Z,11.15
2022-10-21T12:52:02.365Z,11.24
2022-10-21T12:54:33.952Z,11.10
2022-10-21T12:57:07.978Z,10.85
2022-10-21T12:59:34.594Z,11.12
2022-10-21T13:02:10.144Z,11.20
2022-10-21T13:04:36.749Z,11.03
2022-10-21T13:07:16.785Z,10.96
2022-10-21T13:10:06.029Z,11.07
2022-10-21T13:12:33.473Z,10.42
2022-10-21T13:15:01.681Z,11.19
2022-10-21T13:17:48.650Z,10.99
2022-10-21T13:20:15.213Z,11.29
2022-10-21T13:22:43.775Z,11.33
2022-10-21T13:25:16.581Z,11.39
2022-10-21T13:27:52.259Z,10.89
2022-10-21T13:30:31.514Z,12.07
2022-10-21T13:33:02.625Z,12.98
2022-10-21T13:35:44.818Z,13.40
2022-10-21T13:38:31.823Z,13.71
2022-10-21T13:41:00.365Z,13.61
2022-10-21T13:43:34.161Z,13.62
2022-10-21T13:46:14.221Z,13.50
2022-10-21T13:48:44.363Z,13.14
2022-10-21T13:51:27.159Z,13.04
2022-10-21T13:53:58.109Z,13.02
2022-10-21T13:56:33.694Z,13.00
2022-10-21T13:59:01.630Z,12.88
2022-10-21T14:01:46.475Z,13.33
2022-10-21T14:04:19.667Z,14.08
2022-10-21T14:07:06.396Z,14.96
2022-10-21T14:09:42.855Z,15.58
2022-10-21T14:12:34.484Z,15.02
2022-10-21T14:15:18.060Z,15.91
2022-10-21T14:17:52.856Z,15.70
2022-10-21T14:20:33.981Z,15.99
2022-10-21T14:23:06.457Z,15.90
2022-10-21T14:25:33.414Z,15.86
2022-10-21T14:28:01.367Z,15.96
2022-10-21T14:30:32.294Z,16.38
2022-10-21T14:33:02.573Z,16.29
2022-10-21T14:35:30.384Z,15.17
2022-10-21T14:37:59.574Z,15.74
2022-10-21T14:40:40.344Z,16.23
2022-10-21T14:43:38.994Z,16.24
2022-10-21T14:46:07.953Z,16.36
2022-10-21T14:48:37.886Z,16.43
2022-10-21T14:51:17.668Z,16.61
2022-10-21T14:53:58.660Z,17.02
2022-10-21T14:56:34.291Z,16.63
2022-10-21T14:59:14.871Z,15.99
2022-10-21T15:01:43.196Z,15.19
2022-10-21T15:04:52.096Z,15.09
2022-10-21T15:09:57.651Z,14.43
2022-10-21T15:12:24.389Z,14.03
2022-10-21T15:14:51.030Z,13.99
2022-10-21T15:17:17.729Z,13.86
2022-10-21T15:19:50.467Z,13.79
2022-10-21T15:22:27.539Z,13.62
2022-10-21T15:24:59.857Z,13.43
2022-10-21T15:27:42.521Z,13.30
2022-10-21T15:30:19.872Z,13.02
2022-10-21T15:32:47.512Z,12.93
2022-10-21T15:35:20.694Z,13.11
2022-10-21T15:37:50.809Z,12.66
2022-10-21T15:40:18.563Z,12.60
2022-10-21T15:42:46.034Z,12.43
2022-10-21T15:45:22.934Z,12.51
2022-10-21T15:47:54.055Z,12.82
2022-10-21T15:50:23.745Z,12.72
2022-10-21T15:52:50.669Z,12.55
2022-10-21T15:55:17.327Z,12.46
2022-10-21T15:57:44.605Z,12.42
2022-10-21T16:00:17.729Z,12.62
2022-10-21T16:02:45.222Z,12.50
2022-10-21T16:05:11.906Z,12.43
2022-10-21T16:07:38.695Z,12.52
2022-10-21T16:10:22.307Z,12.54
2022-10-21T16:12:50.103Z,12.51
2022-10-21T16:15:18.245Z,12.28
2022-10-21T16:17:47.630Z,12.38
2022-10-21T16:20:17.201Z,12.20
2022-10-21T16:22:43.995Z,12.13
2022-10-21T16:25:11.299Z,12.37
2022-10-21T16:27:51.182Z,12.21
2022-10-21T16:30:24.782Z,12.03
2022-10-21T16:32:51.913Z,12.11
2022-10-21T16:35:21.003Z,12.00
2022-10-21T16:37:48.823Z,11.99
2022-10-21T16:40:21.612Z,11.91
2022-10-21T16:42:49.722Z,11.88
2022-10-21T16:45:17.274Z,11.69
2022-10-21T16:47:48.265Z,11.87
2022-10-21T16:50:19.486Z,11.76
2022-10-21T16:52:46.278Z,11.55
2022-10-21T16:55:14.011Z,11.87
2022-10-21T16:57:40.901Z,11.62
2022-10-21T17:00:08.780Z,11.97
2022-10-21T17:02:40.277Z,12.04
2022-10-21T17:05:08.632Z,11.78
2022-10-21T17:07:35.350Z,11.71
2022-10-21T17:10:02.199Z,11.71
2022-10-21T17:12:32.566Z,11.75
2022-10-21T17:15:00.449Z,11.65
2022-10-21T17:17:27.378Z,11.50
2022-10-21T17:19:54.239Z,11.42
2022-10-21T17:22:20.889Z,11.55
2022-10-21T17:24:49.090Z,11.70
2022-10-21T17:27:19.524Z,11.29
2022-10-21T17:29:46.742Z,11.49
2022-10-21T17:32:13.480Z,11.55
2022-10-21T17:34:41.114Z,11.58
2022-10-21T17:37:09.750Z,11.38
2022-10-21T17:39:36.521Z,11.29
2022-10-21T17:42:03.911Z,11.50
2022-10-21T17:44:30.706Z,11.47
2022-10-21T17:46:57.467Z,11.18
2022-10-21T17:49:26.195Z,11.53
2022-10-21T17:51:52.935Z,11.55
2022-10-21T17:54:22.899Z,11.51
2022-10-21T17:56:53.472Z,11.36
2022-10-21T17:59:20.052Z,11.37
2022-10-21T18:01:46.837Z,11.23
2022-10-21T18:04:14.109Z,11.17
2022-10-21T18:06:40.952Z,11.35
2022-10-21T18:09:08.726Z,11.19
2022-10-21T18:11:36.830Z,10.99
2022-10-21T18:14:04.423Z,11.16
2022-10-21T18:16:32.236Z,11.30
2022-10-21T18:19:01.957Z,11.34
2022-10-21T18:21:30.921Z,11.33
2022-10-21T18:23:57.978Z,11.21
2022-10-21T18:26:27.561Z,11.29
2022-10-21T18:29:01.462Z,11.29
2022-10-21T18:31:30.354Z,11.22
2022-10-21T18:33:58.631Z,11.06
2022-10-21T18:36:25.807Z,11.04
2022-10-21T18:38:52.998Z,11.22
2022-10-21T18:41:21.369Z,11.11
2022-10-21T18:43:51.551Z,11.07
2022-10-21T18:46:19.030Z,10.87
2022-10-21T18:48:45.693Z,10.96
2022-10-21T18:51:15.566Z,10.89
2022-10-21T18:53:42.871Z,10.57
2022-10-21T18:56:13.496Z,10.86
2022-10-21T18:58:40.674Z,10.61
2022-10-21T19:01:08.120Z,10.80
2022-10-21T19:03:35.607Z,10.81
2022-10-21T19:06:37.487Z,10.83
2022-10-21T19:09:13.034Z,10.69
2022-10-21T19:11:40.856Z,10.54
2022-10-21T19:14:11.218Z,10.65
2022-10-21T19:16:40.720Z,10.51
2022-10-21T19:19:08.255Z,10.49
2022-10-21T19:21:35.186Z,10.69
2022-10-21T19:24:03.293Z,10.56
2022-10-21T19:26:32.042Z,10.58
2022-10-21T19:29:01.820Z,10.17
2022-10-21T19:31:28.554Z,10.17
2022-10-21T19:33:55.342Z,10.55
2022-10-21T19:36:22.164Z,10.55
2022-10-21T19:38:48.901Z,10.04
2022-10-21T19:41:18.930Z,10.21
2022-10-21T19:43:46.041Z,10.45
2022-10-21T19:46:19.894Z,10.11
2022-10-21T19:48:49.392Z,10.28
2022-10-21T19:51:18.631Z,10.38
2022-10-21T19:53:46.108Z,10.39
2022-10-21T19:56:14.041Z,10.39
2022-10-21T19:58:43.479Z,10.23
2022-10-21T20:01:12.555Z,10.40
2022-10-21T20:03:40.641Z,10.42
2022-10-21T20:06:09.424Z,10.15
2022-10-21T20:08:38.515Z,10.43
2022-10-21T20:11:07.682Z,10.07
2022-10-21T20:13:34.462Z,10.22
2022-10-21T20:16:01.147Z,10.14
2022-10-21T20:18:27.830Z,10.17
2022-10-21T20:20:55.520Z,10.16
2022-10-21T20:23:26.238Z,10.29
2022-10-21T20:25:55.493Z,10.26
2022-10-21T20:28:22.724Z,10.26
2022-10-21T20:31:07.767Z,10.15
2022-10-21T20:33:37.254Z,10.19
2022-10-21T20:36:12.106Z,10.07
2022-10-21T20:38:38.873Z,9.93
2022-10-21T20:41:08.240Z,9.89
2022-10-21T20:43:36.068Z,10.00
2022-10-21T20:46:06.826Z,9.93
2022-10-21T20:48:34.545Z,9.81
2022-10-21T20:51:06.873Z,9.74
2022-10-21T20:53:34.779Z,9.75
2022-10-21T20:56:03.529Z,9.63
2022-10-21T20:58:30.136Z,9.89
2022-10-21T21:00:56.808Z,9.63
2022-10-21T21:03:23.479Z,9.73
2022-10-21T21:05:50.086Z,9.78
2022-10-21T21:08:16.784Z,9.52
2022-10-21T21:10:43.424Z,9.87
2022-10-21T21:13:10.090Z,9.66
2022-10-21T21:15:36.735Z,9.63
2022-10-21T21:18:07.878Z,9.71
2022-10-21T21:20:34.464Z,9.80
2022-10-21T21:23:01.132Z,9.76
2022-10-21T21:25:28.571Z,9.26
2022-10-21T21:27:55.201Z,9.59
2022-10-21T21:30:21.855Z,9.77
2022-10-21T21:32:48.542Z,9.78
2022-10-21T21:35:15.177Z,9.78
2022-10-21T21:37:41.851Z,9.37
2022-10-21T21:40:11.953Z,9.48
2022-10-21T21:42:38.776Z,9.50
2022-10-21T21:45:06.352Z,9.59
2022-10-21T21:47:32.994Z,9.39
2022-10-21T21:49:59.617Z,9.53
2022-10-21T21:52:26.352Z,9.79
2022-10-21T21:54:55.278Z,9.37
2022-10-21T21:57:29.019Z,9.48
2022-10-21T21:59:55.704Z,9.39
2022-10-21T22:02:22.404Z,9.44
2022-10-21T22:04:49.092Z,9.35
2022-10-21T22:07:15.731Z,9.44
2022-10-21T22:09:42.495Z,9.33
2022-10-21T22:12:12.915Z,9.15
2022-10-21T22:14:41.209Z,9.48
2022-10-21T22:17:07.925Z,9.56
2022-10-21T22:19:35.153Z,9.32
2022-10-21T22:22:01.877Z,8.62
2022-10-21T22:27:04.496Z,9.54
2022-10-21T22:29:31.262Z,9.17
2022-10-21T22:31:58.050Z,9.24
2022-10-21T22:34:24.653Z,9.25
2022-10-21T22:36:51.236Z,9.21
2022-10-21T22:39:17.861Z,9.39
2022-10-21T22:41:44.615Z,9.21
2022-10-21T22:44:11.962Z,9.14
2022-10-21T22:46:38.687Z,9.06
2022-10-21T22:49:05.784Z,8.89
2022-10-21T22:51:33.165Z,9.56
2022-10-21T22:53:59.827Z,9.44
2022-10-21T22:56:27.877Z,9.53
2022-10-21T22:58:54.703Z,9.41
2022-10-21T23:01:21.512Z,9.18
2022-10-21T23:03:48.114Z,8.96
2022-10-21T23:06:15.179Z,9.21
2022-10-21T23:08:41.896Z,9.29
2022-10-21T23:11:08.647Z,9.38
2022-10-21T23:13:35.257Z,9.37
2022-10-21T23:16:01.837Z,9.18
2022-10-21T23:18:28.523Z,9.34
2022-10-21T23:20:55.137Z,9.32
2022-10-21T23:23:22.968Z,9.16
2022-10-21T23:25:49.630Z,9.30
2022-10-21T23:30:44.997Z,9.28
2022-10-21T23:33:11.650Z,9.43
2022-10-21T23:35:38.584Z,9.49
2022-10-21T23:38:05.516Z,9.01
2022-10-21T23:40:32.315Z,9.07
2022-10-21T23:42:58.960Z,8.99
2022-10-21T23:45:25.569Z,8.96
2022-10-21T23:47:52.230Z,8.90
2022-10-21T23:50:18.885Z,8.99
2022-10-21T23:52:45.641Z,9.20
2022-10-21T23:55:12.256Z,9.25
2022-10-21T23:57:39.616Z,9.10
